sensor_id;sensor_type;location;lat;lon;timestamp;pressure;altitude;pressure_sealevel;temperature;humidity
41078;BME280;26823;42.662;23.352;2023-05-21T00:02:14;94668.06;;;13.49;99.20
41078;BME280;26823;42.662;23.352;2023-05-21T00:04:42;94669.38;;;13.51;98.50
41078;BME280;26823;42.662;23.352;2023-05-21T00:07:07;94665.44;;;13.44;98.81
41078;BME280;26823;42.662;23.352;2023-05-21T00:09:34;94655.34;;;13.30;98.95
41078;BME280;26823;42.662;23.352;2023-05-21T00:11:59;94651.28;;;13.14;100.00
41078;BME280;26823;42.662;23.352;2023-05-21T00:14:25;94641.22;;;13.14;100.00
41078;BME280;26823;42.662;23.352;2023-05-21T00:16:50;94662.09;;;13.33;100.00
41078;BME280;26823;42.662;23.352;2023-05-21T00:19:16;94648.38;;;13.24;100.00
41078;BME280;26823;42.662;23.352;2023-05-21T00:21:41;94652.25;;;13.37;99.67
41078;BME280;26823;42.662;23.352;2023-05-21T00:24:17;94646.78;;;13.23;99.37
41078;BME280;26823;42.662;23.352;2023-05-21T00:26:42;94643.41;;;13.12;100.00
41078;BME280;26823;42.662;23.352;2023-05-21T00:29:07;94648.94;;;13.07;100.00
41078;BME280;26823;42.662;23.352;2023-05-21T00:31:33;94629.31;;;12.96;100.00
41078;BME280;26823;42.662;23.352;2023-05-21T00:33:58;94648.06;;;13.12;100.00
41078;BME280;26823;42.662;23.352;2023-05-21T00:36:23;94622.16;;;12.86;100.00
41078;BME280;26823;42.662;23.352;2023-05-21T00:38:50;94643.81;;;13.05;100.00
41078;BME280;26823;42.662;23.352;2023-05-21T00:41:16;94636.97;;;13.08;100.00
41078;BME280;26823;42.662;23.352;2023-05-21T00:43:42;94638.88;;;12.94;100.00
41078;BME280;26823;42.662;23.352;2023-05-21T00:46:19;94639.19;;;12.92;100.00
41078;BME280;26823;42.662;23.352;2023-05-21T00:48:46;94631.78;;;12.79;100.00
41078;BME280;26823;42.662;23.352;2023-05-21T00:51:15;94626.88;;;12.81;100.00
41078;BME280;26823;42.662;23.352;2023-05-21T00:53:43;94638.75;;;12.85;100.00
41078;BME280;26823;42.662;23.352;2023-05-21T00:56:09;94643.03;;;12.72;100.00
41078;BME280;26823;42.662;23.352;2023-05-21T00:58:34;94630.34;;;12.67;100.00
41078;BME280;26823;42.662;23.352;2023-05-21T01:01:01;94626.34;;;12.79;100.00
41078;BME280;26823;42.662;23.352;2023-05-21T01:03:31;94636.69;;;12.77;100.00
41078;BME280;26823;42.662;23.352;2023-05-21T01:06:03;94637.69;;;12.67;100.00
41078;BME280;26823;42.662;23.352;2023-05-21T01:08:29;94643.59;;;12.69;100.00
41078;BME280;26823;42.662;23.352;2023-05-21T01:10:55;94628.84;;;12.75;100.00
41078;BME280;26823;42.662;23.352;2023-05-21T01:13:21;94628.00;;;12.94;100.00
41078;BME280;26823;42.662;23.352;2023-05-21T01:15:48;94630.81;;;12.88;100.00
41078;BME280;26823;42.662;23.352;2023-05-21T01:18:14;94624.91;;;13.00;100.00
41078;BME280;26823;42.662;23.352;2023-05-21T01:20:41;94622.19;;;13.00;100.00
41078;BME280;26823;42.662;23.352;2023-05-21T01:23:09;94626.72;;;13.05;100.00
41078;BME280;26823;42.662;23.352;2023-05-21T01:25:35;94640.22;;;13.10;100.00
41078;BME280;26823;42.662;23.352;2023-05-21T01:28:07;94616.47;;;13.02;100.00
41078;BME280;26823;42.662;23.352;2023-05-21T01:30:32;94609.72;;;12.99;100.00
41078;BME280;26823;42.662;23.352;2023-05-21T01:33:03;94612.44;;;12.99;100.00
41078;BME280;26823;42.662;23.352;2023-05-21T01:35:34;94613.72;;;12.88;100.00
41078;BME280;26823;42.662;23.352;2023-05-21T01:40:59;94609.59;;;12.91;100.00
41078;BME280;26823;42.662;23.352;2023-05-21T01:43:33;94600.53;;;12.81;100.00
41078;BME280;26823;42.662;23.352;2023-05-21T01:46:01;94614.22;;;12.90;100.00
41078;BME280;26823;42.662;23.352;2023-05-21T01:48:28;94609.88;;;12.75;100.00
41078;BME280;26823;42.662;23.352;2023-05-21T01:50:57;94627.06;;;12.84;100.00
41078;BME280;26823;42.662;23.352;2023-05-21T01:53:24;94627.84;;;13.04;100.00
41078;BME280;26823;42.662;23.352;2023-05-21T01:55:50;94616.63;;;12.92;100.00
41078;BME280;26823;42.662;23.352;2023-05-21T01:58:15;94607.97;;;12.76;100.00
41078;BME280;26823;42.662;23.352;2023-05-21T02:00:41;94611.25;;;12.72;100.00
41078;BME280;26823;42.662;23.352;2023-05-21T02:03:07;94590.34;;;12.59;100.00
41078;BME280;26823;42.662;23.352;2023-05-21T02:05:33;94596.38;;;12.70;100.00
41078;BME280;26823;42.662;23.352;2023-05-21T02:08:01;94613.44;;;12.56;100.00
41078;BME280;26823;42.662;23.352;2023-05-21T02:10:26;94605.03;;;12.72;100.00
41078;BME280;26823;42.662;23.352;2023-05-21T02:12:52;94601.31;;;12.82;100.00
41078;BME280;26823;42.662;23.352;2023-05-21T02:15:17;94608.16;;;12.79;100.00
41078;BME280;26823;42.662;23.352;2023-05-21T02:17:46;94598.66;;;12.63;100.00
41078;BME280;26823;42.662;23.352;2023-05-21T02:20:12;94602.72;;;12.79;100.00
41078;BME280;26823;42.662;23.352;2023-05-21T02:22:38;94606.94;;;12.71;100.00
41078;BME280;26823;42.662;23.352;2023-05-21T02:25:05;94605.41;;;12.65;100.00
41078;BME280;26823;42.662;23.352;2023-05-21T02:27:31;94616.25;;;12.65;100.00
41078;BME280;26823;42.662;23.352;2023-05-21T02:29:59;94592.34;;;12.67;100.00
41078;BME280;26823;42.662;23.352;2023-05-21T02:32:25;94592.22;;;12.59;100.00
41078;BME280;26823;42.662;23.352;2023-05-21T02:34:50;94600.59;;;12.62;100.00
41078;BME280;26823;42.662;23.352;2023-05-21T02:37:15;94598.75;;;12.57;100.00
41078;BME280;26823;42.662;23.352;2023-05-21T02:39:41;94587.50;;;12.50;100.00
41078;BME280;26823;42.662;23.352;2023-05-21T02:42:07;94601.19;;;12.40;100.00
41078;BME280;26823;42.662;23.352;2023-05-21T02:44:32;94573.00;;;12.22;100.00
41078;BME280;26823;42.662;23.352;2023-05-21T02:46:58;94588.22;;;12.37;100.00
41078;BME280;26823;42.662;23.352;2023-05-21T02:49:23;94597.63;;;12.26;100.00
41078;BME280;26823;42.662;23.352;2023-05-21T02:51:49;94588.31;;;12.32;100.00
41078;BME280;26823;42.662;23.352;2023-05-21T02:54:14;94596.00;;;12.24;100.00
41078;BME280;26823;42.662;23.352;2023-05-21T02:56:39;94584.16;;;12.20;100.00
41078;BME280;26823;42.662;23.352;2023-05-21T02:59:05;94595.50;;;12.22;100.00
41078;BME280;26823;42.662;23.352;2023-05-21T03:01:31;94568.88;;;12.24;100.00
41078;BME280;26823;42.662;23.352;2023-05-21T03:03:56;94586.47;;;12.27;100.00
41078;BME280;26823;42.662;23.352;2023-05-21T03:06:21;94588.69;;;12.25;100.00
41078;BME280;26823;42.662;23.352;2023-05-21T03:08:47;94590.81;;;12.28;100.00
41078;BME280;26823;42.662;23.352;2023-05-21T03:11:12;94601.88;;;12.32;100.00
41078;BME280;26823;42.662;23.352;2023-05-21T03:13:37;94589.25;;;12.22;100.00
41078;BME280;26823;42.662;23.352;2023-05-21T03:16:03;94580.97;;;12.32;100.00
41078;BME280;26823;42.662;23.352;2023-05-21T03:18:29;94589.84;;;12.38;100.00
41078;BME280;26823;42.662;23.352;2023-05-21T03:20:54;94587.94;;;12.38;100.00
41078;BME280;26823;42.662;23.352;2023-05-21T03:23:22;94587.44;;;12.36;100.00
41078;BME280;26823;42.662;23.352;2023-05-21T03:25:48;94598.28;;;12.36;100.00
41078;BME280;26823;42.662;23.352;2023-05-21T03:28:15;94598.94;;;12.28;100.00
41078;BME280;26823;42.662;23.352;2023-05-21T03:30:41;94604.38;;;12.28;100.00
41078;BME280;26823;42.662;23.352;2023-05-21T03:33:11;94607.22;;;12.37;100.00
41078;BME280;26823;42.662;23.352;2023-05-21T03:35:36;94609.13;;;12.36;100.00
41078;BME280;26823;42.662;23.352;2023-05-21T03:38:02;94610.72;;;12.37;100.00
41078;BME280;26823;42.662;23.352;2023-05-21T03:40:27;94585.47;;;12.23;100.00
41078;BME280;26823;42.662;23.352;2023-05-21T03:42:53;94591.09;;;12.27;100.00
41078;BME280;26823;42.662;23.352;2023-05-21T03:45:18;94598.28;;;12.36;100.00
41078;BME280;26823;42.662;23.352;2023-05-21T03:47:43;94599.00;;;12.42;100.00
41078;BME280;26823;42.662;23.352;2023-05-21T03:50:09;94592.63;;;12.52;100.00
41078;BME280;26823;42.662;23.352;2023-05-21T03:52:34;94596.16;;;12.33;100.00
41078;BME280;26823;42.662;23.352;2023-05-21T03:55:00;94600.63;;;12.43;100.00
41078;BME280;26823;42.662;23.352;2023-05-21T03:57:25;94593.44;;;12.66;100.00
41078;BME280;26823;42.662;23.352;2023-05-21T03:59:51;94594.63;;;12.60;100.00
41078;BME280;26823;42.662;23.352;2023-05-21T04:02:16;94608.84;;;12.38;100.00
41078;BME280;26823;42.662;23.352;2023-05-21T04:04:41;94586.97;;;12.48;100.00
41078;BME280;26823;42.662;23.352;2023-05-21T04:07:08;94585.53;;;12.70;100.00
41078;BME280;26823;42.662;23.352;2023-05-21T04:09:39;94590.66;;;12.71;100.00
41078;BME280;26823;42.662;23.352;2023-05-21T04:12:04;94586.19;;;12.48;100.00
41078;BME280;26823;42.662;23.352;2023-05-21T04:14:30;94607.06;;;12.47;100.00
41078;BME280;26823;42.662;23.352;2023-05-21T04:16:55;94596.00;;;12.77;100.00
41078;BME280;26823;42.662;23.352;2023-05-21T04:19:21;94598.03;;;12.85;100.00
41078;BME280;26823;42.662;23.352;2023-05-21T04:21:46;94563.91;;;12.65;100.00
41078;BME280;26823;42.662;23.352;2023-05-21T04:24:11;94611.00;;;12.55;100.00
41078;BME280;26823;42.662;23.352;2023-05-21T04:26:44;94603.69;;;12.88;100.00
41078;BME280;26823;42.662;23.352;2023-05-21T04:29:10;94583.28;;;12.91;100.00
41078;BME280;26823;42.662;23.352;2023-05-21T04:31:35;94583.97;;;12.97;100.00
41078;BME280;26823;42.662;23.352;2023-05-21T04:34:01;94597.63;;;12.92;100.00
41078;BME280;26823;42.662;23.352;2023-05-21T04:36:26;94608.72;;;12.95;100.00
41078;BME280;26823;42.662;23.352;2023-05-21T04:38:53;94596.06;;;13.18;100.00
41078;BME280;26823;42.662;23.352;2023-05-21T04:41:18;94589.81;;;13.04;100.00
41078;BME280;26823;42.662;23.352;2023-05-21T04:43:45;94612.16;;;13.01;100.00
41078;BME280;26823;42.662;23.352;2023-05-21T04:46:10;94586.38;;;12.98;100.00
41078;BME280;26823;42.662;23.352;2023-05-21T04:48:36;94611.75;;;13.08;100.00
41078;BME280;26823;42.662;23.352;2023-05-21T04:51:01;94607.53;;;13.15;100.00
41078;BME280;26823;42.662;23.352;2023-05-21T04:53:29;94598.78;;;13.18;100.00
41078;BME280;26823;42.662;23.352;2023-05-21T04:55:55;94608.06;;;13.31;100.00
41078;BME280;26823;42.662;23.352;2023-05-21T04:58:25;94602.13;;;13.29;100.00
41078;BME280;26823;42.662;23.352;2023-05-21T05:00:52;94575.56;;;13.26;100.00
41078;BME280;26823;42.662;23.352;2023-05-21T05:03:17;94614.44;;;13.41;100.00
41078;BME280;26823;42.662;23.352;2023-05-21T05:05:43;94598.63;;;13.29;100.00
41078;BME280;26823;42.662;23.352;2023-05-21T05:08:08;94597.50;;;13.72;99.44
41078;BME280;26823;42.662;23.352;2023-05-21T05:10:34;94604.56;;;13.59;100.00
41078;BME280;26823;42.662;23.352;2023-05-21T05:12:59;94605.88;;;13.61;98.32
41078;BME280;26823;42.662;23.352;2023-05-21T05:15:25;94596.72;;;13.71;96.29
41078;BME280;26823;42.662;23.352;2023-05-21T05:17:50;94606.88;;;13.65;95.74
41078;BME280;26823;42.662;23.352;2023-05-21T05:20:16;94596.81;;;13.66;95.02
41078;BME280;26823;42.662;23.352;2023-05-21T05:22:41;94605.84;;;13.89;95.46
41078;BME280;26823;42.662;23.352;2023-05-21T05:25:07;94596.50;;;13.81;94.74
41078;BME280;26823;42.662;23.352;2023-05-21T05:27:33;94597.03;;;13.69;94.08
41078;BME280;26823;42.662;23.352;2023-05-21T05:29:58;94604.53;;;14.00;93.18
41078;BME280;26823;42.662;23.352;2023-05-21T05:32:24;94590.41;;;13.98;93.34
41078;BME280;26823;42.662;23.352;2023-05-21T05:34:49;94592.16;;;13.94;92.57
41078;BME280;26823;42.662;23.352;2023-05-21T05:37:17;94586.78;;;14.03;92.26
41078;BME280;26823;42.662;23.352;2023-05-21T05:39:43;94600.03;;;14.18;90.79
41078;BME280;26823;42.662;23.352;2023-05-21T05:42:08;94588.81;;;14.11;91.28
41078;BME280;26823;42.662;23.352;2023-05-21T05:44:33;94595.00;;;14.26;90.41
41078;BME280;26823;42.662;23.352;2023-05-21T05:46:59;94601.50;;;14.39;89.94
41078;BME280;26823;42.662;23.352;2023-05-21T05:49:24;94603.50;;;14.47;90.12
41078;BME280;26823;42.662;23.352;2023-05-21T05:51:52;94590.38;;;14.49;89.19
41078;BME280;26823;42.662;23.352;2023-05-21T05:54:18;94600.97;;;14.50;88.16
41078;BME280;26823;42.662;23.352;2023-05-21T05:56:43;94602.75;;;14.55;86.67
41078;BME280;26823;42.662;23.352;2023-05-21T05:59:08;94600.69;;;14.75;87.58
41078;BME280;26823;42.662;23.352;2023-05-21T06:01:34;94599.00;;;14.88;86.98
41078;BME280;26823;42.662;23.352;2023-05-21T06:03:59;94594.72;;;14.95;85.83
41078;BME280;26823;42.662;23.352;2023-05-21T06:06:25;94593.53;;;15.10;83.88
41078;BME280;26823;42.662;23.352;2023-05-21T06:08:50;94606.78;;;15.35;81.29
41078;BME280;26823;42.662;23.352;2023-05-21T06:11:16;94602.88;;;15.58;82.10
41078;BME280;26823;42.662;23.352;2023-05-21T06:13:43;94581.25;;;15.79;79.19
41078;BME280;26823;42.662;23.352;2023-05-21T06:16:08;94605.59;;;16.25;79.95
41078;BME280;26823;42.662;23.352;2023-05-21T06:18:34;94609.97;;;16.52;77.67
41078;BME280;26823;42.662;23.352;2023-05-21T06:21:00;94599.66;;;16.40;69.21
41078;BME280;26823;42.662;23.352;2023-05-21T06:23:25;94585.72;;;16.51;69.30
41078;BME280;26823;42.662;23.352;2023-05-21T06:25:51;94601.09;;;16.99;71.26
41078;BME280;26823;42.662;23.352;2023-05-21T06:28:16;94596.16;;;16.92;67.79
41078;BME280;26823;42.662;23.352;2023-05-21T06:30:42;94580.72;;;16.44;68.87
41078;BME280;26823;42.662;23.352;2023-05-21T06:33:07;94589.72;;;16.36;67.02
41078;BME280;26823;42.662;23.352;2023-05-21T06:35:32;94587.47;;;16.55;67.55
41078;BME280;26823;42.662;23.352;2023-05-21T06:38:01;94582.03;;;16.29;67.17
41078;BME280;26823;42.662;23.352;2023-05-21T06:40:26;94572.88;;;16.51;68.92
41078;BME280;26823;42.662;23.352;2023-05-21T06:42:52;94581.66;;;16.66;69.31
41078;BME280;26823;42.662;23.352;2023-05-21T06:45:17;94576.38;;;16.69;67.81
41078;BME280;26823;42.662;23.352;2023-05-21T06:47:43;94581.72;;;16.57;66.83
41078;BME280;26823;42.662;23.352;2023-05-21T06:50:08;94575.25;;;16.70;66.15
41078;BME280;26823;42.662;23.352;2023-05-21T06:52:36;94569.13;;;16.91;67.34
41078;BME280;26823;42.662;23.352;2023-05-21T06:55:02;94536.41;;;16.73;66.49
41078;BME280;26823;42.662;23.352;2023-05-21T06:57:27;94550.53;;;16.58;64.67
41078;BME280;26823;42.662;23.352;2023-05-21T06:59:52;94585.38;;;16.52;65.22
41078;BME280;26823;42.662;23.352;2023-05-21T07:02:18;94572.19;;;16.98;65.70
41078;BME280;26823;42.662;23.352;2023-05-21T07:04:43;94554.94;;;17.15;66.87
41078;BME280;26823;42.662;23.352;2023-05-21T07:07:09;94559.41;;;17.20;64.40
41078;BME280;26823;42.662;23.352;2023-05-21T07:09:34;94537.44;;;17.07;64.15
41078;BME280;26823;42.662;23.352;2023-05-21T07:11:59;94526.19;;;17.09;62.11
41078;BME280;26823;42.662;23.352;2023-05-21T07:14:26;94568.75;;;17.57;63.20
41078;BME280;26823;42.662;23.352;2023-05-21T07:16:51;94569.41;;;17.84;62.44
41078;BME280;26823;42.662;23.352;2023-05-21T07:19:17;94556.84;;;17.62;62.37
41078;BME280;26823;42.662;23.352;2023-05-21T07:21:42;94558.38;;;17.42;62.08
41078;BME280;26823;42.662;23.352;2023-05-21T07:24:08;94570.03;;;17.90;61.82
41078;BME280;26823;42.662;23.352;2023-05-21T07:26:33;94583.28;;;17.40;60.99
41078;BME280;26823;42.662;23.352;2023-05-21T07:28:59;94546.09;;;17.18;61.63
41078;BME280;26823;42.662;23.352;2023-05-21T07:31:24;94572.72;;;17.30;61.28
41078;BME280;26823;42.662;23.352;2023-05-21T07:33:50;94568.47;;;17.03;61.19
41078;BME280;26823;42.662;23.352;2023-05-21T07:36:15;94577.56;;;17.33;61.85
41078;BME280;26823;42.662;23.352;2023-05-21T07:38:41;94581.19;;;17.46;61.15
41078;BME280;26823;42.662;23.352;2023-05-21T07:41:07;94585.13;;;17.66;61.01
41078;BME280;26823;42.662;23.352;2023-05-21T07:43:32;94577.53;;;17.72;60.98
41078;BME280;26823;42.662;23.352;2023-05-21T07:45:58;94566.03;;;17.87;61.42
41078;BME280;26823;42.662;23.352;2023-05-21T07:48:23;94567.25;;;17.99;60.61
41078;BME280;26823;42.662;23.352;2023-05-21T07:50:48;94564.50;;;18.29;57.37
41078;BME280;26823;42.662;23.352;2023-05-21T07:53:16;94572.69;;;18.71;57.35
41078;BME280;26823;42.662;23.352;2023-05-21T07:55:42;94570.81;;;18.63;55.62
41078;BME280;26823;42.662;23.352;2023-05-21T07:58:16;94564.19;;;18.85;56.10
41078;BME280;26823;42.662;23.352;2023-05-21T08:00:43;94565.69;;;19.28;55.64
41078;BME280;26823;42.662;23.352;2023-05-21T08:03:09;94569.81;;;19.34;54.11
41078;BME280;26823;42.662;23.352;2023-05-21T08:05:36;94551.03;;;19.24;51.91
41078;BME280;26823;42.662;23.352;2023-05-21T08:08:02;94568.03;;;19.05;50.26
41078;BME280;26823;42.662;23.352;2023-05-21T08:10:27;94550.00;;;18.83;47.04
41078;BME280;26823;42.662;23.352;2023-05-21T08:12:52;94563.56;;;19.00;45.49
41078;BME280;26823;42.662;23.352;2023-05-21T08:15:18;94551.56;;;19.05;45.82
41078;BME280;26823;42.662;23.352;2023-05-21T08:17:43;94560.53;;;19.27;45.11
41078;BME280;26823;42.662;23.352;2023-05-21T08:20:09;94538.84;;;18.88;45.75
41078;BME280;26823;42.662;23.352;2023-05-21T08:22:34;94556.84;;;19.10;45.53
41078;BME280;26823;42.662;23.352;2023-05-21T08:25:00;94559.38;;;19.15;44.08
41078;BME280;26823;42.662;23.352;2023-05-21T08:27:32;94564.47;;;19.04;43.36
41078;BME280;26823;42.662;23.352;2023-05-21T08:29:58;94563.31;;;18.93;43.44
41078;BME280;26823;42.662;23.352;2023-05-21T08:32:23;94564.84;;;18.82;43.39
41078;BME280;26823;42.662;23.352;2023-05-21T08:34:49;94549.91;;;18.58;43.13
41078;BME280;26823;42.662;23.352;2023-05-21T08:37:14;94560.97;;;18.83;43.21
41078;BME280;26823;42.662;23.352;2023-05-21T08:39:39;94564.66;;;18.66;43.88
41078;BME280;26823;42.662;23.352;2023-05-21T08:42:44;94554.53;;;18.66;44.64
41078;BME280;26823;42.662;23.352;2023-05-21T08:45:11;94574.81;;;18.86;44.68
41078;BME280;26823;42.662;23.352;2023-05-21T08:47:40;94562.22;;;18.85;48.69
41078;BME280;26823;42.662;23.352;2023-05-21T08:50:09;94555.03;;;19.14;42.64
41078;BME280;26823;42.662;23.352;2023-05-21T08:52:35;94549.69;;;19.30;46.36
41078;BME280;26823;42.662;23.352;2023-05-21T08:55:02;94556.53;;;19.36;42.95
41078;BME280;26823;42.662;23.352;2023-05-21T08:57:30;94570.97;;;19.70;43.57
41078;BME280;26823;42.662;23.352;2023-05-21T08:59:56;94556.66;;;19.40;43.32
41078;BME280;26823;42.662;23.352;2023-05-21T09:02:21;94546.84;;;19.39;44.38
41078;BME280;26823;42.662;23.352;2023-05-21T09:04:50;94555.19;;;19.55;44.93
41078;BME280;26823;42.662;23.352;2023-05-21T09:07:24;94565.94;;;19.48;43.91
41078;BME280;26823;42.662;23.352;2023-05-21T09:09:57;94560.97;;;18.83;45.18
41078;BME280;26823;42.662;23.352;2023-05-21T09:12:26;94565.44;;;18.87;46.14
41078;BME280;26823;42.662;23.352;2023-05-21T09:14:51;94564.97;;;19.06;44.36
41078;BME280;26823;42.662;23.352;2023-05-21T09:17:17;94534.56;;;18.99;43.45
41078;BME280;26823;42.662;23.352;2023-05-21T09:20:23;94568.75;;;19.27;41.66
41078;BME280;26823;42.662;23.352;2023-05-21T09:22:49;94549.50;;;19.60;47.32
41078;BME280;26823;42.662;23.352;2023-05-21T09:25:19;94561.72;;;19.75;42.77
41078;BME280;26823;42.662;23.352;2023-05-21T09:27:45;94561.03;;;20.03;42.80
41078;BME280;26823;42.662;23.352;2023-05-21T09:30:12;94554.50;;;19.58;41.17
41078;BME280;26823;42.662;23.352;2023-05-21T09:32:39;94566.63;;;19.45;41.87
41078;BME280;26823;42.662;23.352;2023-05-21T09:35:10;94564.59;;;19.79;41.42
41078;BME280;26823;42.662;23.352;2023-05-21T09:37:47;94562.38;;;20.21;41.28
41078;BME280;26823;42.662;23.352;2023-05-21T09:40:19;94553.16;;;20.01;39.49
41078;BME280;26823;42.662;23.352;2023-05-21T09:42:54;94569.03;;;20.08;38.25
41078;BME280;26823;42.662;23.352;2023-05-21T09:45:20;94566.66;;;19.57;38.53
41078;BME280;26823;42.662;23.352;2023-05-21T09:47:47;94552.59;;;19.96;40.95
41078;BME280;26823;42.662;23.352;2023-05-21T09:50:16;94550.88;;;19.66;39.46
41078;BME280;26823;42.662;23.352;2023-05-21T09:52:42;94547.53;;;20.10;39.22
41078;BME280;26823;42.662;23.352;2023-05-21T09:55:11;94549.06;;;20.48;38.54
41078;BME280;26823;42.662;23.352;2023-05-21T09:57:44;94559.31;;;19.74;37.65
41078;BME280;26823;42.662;23.352;2023-05-21T10:00:23;94546.88;;;19.88;38.65
41078;BME280;26823;42.662;23.352;2023-05-21T10:02:53;94541.25;;;20.10;37.56
41078;BME280;26823;42.662;23.352;2023-05-21T10:05:19;94532.75;;;20.15;37.09
41078;BME280;26823;42.662;23.352;2023-05-21T10:07:50;94547.09;;;20.49;37.87
41078;BME280;26823;42.662;23.352;2023-05-21T10:10:18;94535.22;;;19.92;37.43
41078;BME280;26823;42.662;23.352;2023-05-21T10:12:46;94530.97;;;19.82;36.64
41078;BME280;26823;42.662;23.352;2023-05-21T10:15:15;94535.13;;;20.29;37.36
41078;BME280;26823;42.662;23.352;2023-05-21T10:17:42;94539.00;;;20.68;38.82
41078;BME280;26823;42.662;23.352;2023-05-21T10:20:10;94542.31;;;19.93;36.50
41078;BME280;26823;42.662;23.352;2023-05-21T10:22:37;94533.69;;;19.82;37.52
41078;BME280;26823;42.662;23.352;2023-05-21T10:25:04;94534.38;;;20.16;37.53
41078;BME280;26823;42.662;23.352;2023-05-21T10:27:31;94534.63;;;19.74;36.63
41078;BME280;26823;42.662;23.352;2023-05-21T10:29:58;94528.16;;;20.19;39.09
41078;BME280;26823;42.662;23.352;2023-05-21T10:32:25;94526.97;;;20.45;39.17
41078;BME280;26823;42.662;23.352;2023-05-21T10:34:52;94526.97;;;20.04;39.05
41078;BME280;26823;42.662;23.352;2023-05-21T10:37:19;94524.16;;;20.29;40.18
41078;BME280;26823;42.662;23.352;2023-05-21T10:39:47;94512.69;;;19.86;38.42
41078;BME280;26823;42.662;23.352;2023-05-21T10:42:39;94526.75;;;19.97;38.25
41078;BME280;26823;42.662;23.352;2023-05-21T10:45:32;94533.94;;;20.01;37.82
41078;BME280;26823;42.662;23.352;2023-05-21T10:51:24;94526.16;;;20.85;40.02
41078;BME280;26823;42.662;23.352;2023-05-21T10:59:31;94529.22;;;19.28;40.16
41078;BME280;26823;42.662;23.352;2023-05-21T11:02:01;94532.66;;;19.25;41.01
41078;BME280;26823;42.662;23.352;2023-05-21T11:04:28;94523.06;;;19.18;41.70
41078;BME280;26823;42.662;23.352;2023-05-21T11:06:54;94526.59;;;19.19;41.80
41078;BME280;26823;42.662;23.352;2023-05-21T11:09:20;94520.56;;;19.26;41.86
41078;BME280;26823;42.662;23.352;2023-05-21T11:11:50;94509.69;;;19.17;41.93
41078;BME280;26823;42.662;23.352;2023-05-21T11:14:58;94500.97;;;19.02;41.92
41078;BME280;26823;42.662;23.352;2023-05-21T11:17:37;94476.56;;;19.10;42.50
41078;BME280;26823;42.662;23.352;2023-05-21T11:20:06;94495.09;;;19.50;41.84
41078;BME280;26823;42.662;23.352;2023-05-21T11:22:34;94495.78;;;19.84;41.80
41078;BME280;26823;42.662;23.352;2023-05-21T11:25:00;94513.06;;;20.25;41.33
41078;BME280;26823;42.662;23.352;2023-05-21T11:29:54;94500.41;;;20.08;44.31
41078;BME280;26823;42.662;23.352;2023-05-21T11:32:20;94494.47;;;20.06;42.35
41078;BME280;26823;42.662;23.352;2023-05-21T11:34:48;94507.75;;;19.54;40.58
41078;BME280;26823;42.662;23.352;2023-05-21T11:39:43;94500.34;;;19.18;40.87
41078;BME280;26823;42.662;23.352;2023-05-21T11:42:09;94483.31;;;19.12;41.75
41078;BME280;26823;42.662;23.352;2023-05-21T11:44:44;94496.81;;;19.30;41.53
41078;BME280;26823;42.662;23.352;2023-05-21T11:47:15;94499.09;;;19.40;43.02
41078;BME280;26823;42.662;23.352;2023-05-21T11:49:41;94505.34;;;19.40;45.01
41078;BME280;26823;42.662;23.352;2023-05-21T11:52:07;94494.41;;;19.53;42.95
41078;BME280;26823;42.662;23.352;2023-05-21T11:54:41;94494.06;;;19.42;42.04
41078;BME280;26823;42.662;23.352;2023-05-21T11:57:08;94497.72;;;19.46;41.49
41078;BME280;26823;42.662;23.352;2023-05-21T11:59:34;94484.56;;;19.52;43.17
41078;BME280;26823;42.662;23.352;2023-05-21T12:02:01;94486.31;;;19.32;43.01
41078;BME280;26823;42.662;23.352;2023-05-21T12:04:34;94497.13;;;19.16;42.28
41078;BME280;26823;42.662;23.352;2023-05-21T12:07:05;94496.88;;;19.09;42.59
41078;BME280;26823;42.662;23.352;2023-05-21T12:09:38;94469.69;;;19.03;43.32
41078;BME280;26823;42.662;23.352;2023-05-21T12:12:04;94469.47;;;18.96;43.77
41078;BME280;26823;42.662;23.352;2023-05-21T12:14:30;94475.75;;;18.97;44.53
41078;BME280;26823;42.662;23.352;2023-05-21T12:16:56;94475.16;;;18.91;45.36
41078;BME280;26823;42.662;23.352;2023-05-21T12:19:22;94459.25;;;18.84;46.38
41078;BME280;26823;42.662;23.352;2023-05-21T12:21:47;94484.63;;;18.94;47.13
41078;BME280;26823;42.662;23.352;2023-05-21T12:24:14;94471.88;;;18.98;46.97
41078;BME280;26823;42.662;23.352;2023-05-21T12:26:40;94451.59;;;18.78;47.12
41078;BME280;26823;42.662;23.352;2023-05-21T12:29:12;94471.63;;;18.90;48.36
41078;BME280;26823;42.662;23.352;2023-05-21T12:32:01;94483.28;;;19.00;49.53
41078;BME280;26823;42.662;23.352;2023-05-21T12:39:41;94460.44;;;18.96;47.82
41078;BME280;26823;42.662;23.352;2023-05-21T12:42:07;94465.34;;;19.02;48.07
41078;BME280;26823;42.662;23.352;2023-05-21T12:44:33;94466.72;;;18.96;47.47
41078;BME280;26823;42.662;23.352;2023-05-21T12:46:59;94458.84;;;18.95;48.11
41078;BME280;26823;42.662;23.352;2023-05-21T12:49:39;94468.00;;;18.99;46.52
41078;BME280;26823;42.662;23.352;2023-05-21T12:52:09;94465.13;;;18.95;47.61
41078;BME280;26823;42.662;23.352;2023-05-21T12:54:36;94456.91;;;18.95;46.80
41078;BME280;26823;42.662;23.352;2023-05-21T12:57:10;94463.56;;;19.06;47.23
41078;BME280;26823;42.662;23.352;2023-05-21T13:02:19;94461.63;;;19.19;47.76
41078;BME280;26823;42.662;23.352;2023-05-21T13:04:45;94465.84;;;19.17;47.26
41078;BME280;26823;42.662;23.352;2023-05-21T13:07:11;94465.50;;;19.18;46.76
41078;BME280;26823;42.662;23.352;2023-05-21T13:09:37;94453.00;;;18.96;47.11
41078;BME280;26823;42.662;23.352;2023-05-21T13:12:02;94469.38;;;19.17;46.69